Time;durP1;ratioP1;P1;durP2;ratioP2;P2;SDS_P1;SDS_P2;PMS_P1;PMS_P2;Temp;Humidity;BMP_temperature;BMP_pressure;BME280_temperature;BME280_humidity;BME280_pressure;Samples;Min_cycle;Max_cycle;Signal;HPM_P1;HPM_P2
2023/12/10 00:02:11;;;;;;;1.20;1.10;;;5.20;99.90;;;;;;4967826;28;20026;-82
2023/12/10 00:04:38;;;;;;;0.90;0.83;;;5.20;99.90;;;;;;4949515;28;20066;-82
2023/12/10 00:07:04;;;;;;;1.97;1.00;;;5.20;99.90;;;;;;4966476;28;20057;-83
2023/12/10 00:09:30;;;;;;;1.03;0.87;;;5.30;99.90;;;;;;4966615;28;20023;-82
2023/12/10 00:11:55;;;;;;;0.93;0.87;;;5.30;99.90;;;;;;4966574;28;20043;-81
2023/12/10 00:14:21;;;;;;;1.10;0.83;;;5.40;99.90;;;;;;4966950;28;20103;-81
2023/12/10 00:16:46;;;;;;;0.80;0.77;;;5.50;99.90;;;;;;4966829;28;20162;-81
2023/12/10 00:19:12;;;;;;;2.07;0.90;;;5.50;99.90;;;;;;4967458;28;20038;-82
2023/12/10 00:21:41;;;;;;;1.43;0.80;;;5.60;99.90;;;;;;4967163;28;20043;-81
2023/12/10 00:24:06;;;;;;;1.37;0.90;;;5.60;99.90;;;;;;4966888;28;20035;-81
2023/12/10 00:26:32;;;;;;;1.07;0.90;;;5.60;99.90;;;;;;4966264;28;20033;-81
2023/12/10 00:28:57;;;;;;;1.20;0.90;;;5.60;99.90;;;;;;4967048;28;20041;-81
2023/12/10 00:31:23;;;;;;;1.30;0.80;;;5.70;99.90;;;;;;4967228;28;20035;-81
2023/12/10 00:33:48;;;;;;;1.00;0.80;;;5.80;99.90;;;;;;4968149;28;20026;-82
2023/12/10 00:36:15;;;;;;;1.17;1.00;;;5.80;99.90;;;;;;4965828;28;20031;-84
2023/12/10 00:38:42;;;;;;;1.10;0.90;;;5.90;99.90;;;;;;4966255;28;20083;-84
2023/12/10 00:41:10;;;;;;;1.30;1.10;;;5.90;99.90;;;;;;4966532;28;20034;-84
2023/12/10 00:43:36;;;;;;;2.10;1.00;;;5.90;99.90;;;;;;4967060;28;20027;-81
2023/12/10 00:46:02;;;;;;;1.30;0.77;;;5.90;99.90;;;;;;4967062;28;20149;-83
2023/12/10 00:48:28;;;;;;;2.10;1.00;;;5.90;99.90;;;;;;4967561;28;20023;-81
2023/12/10 00:50:53;;;;;;;1.17;0.73;;;5.90;99.90;;;;;;4967136;28;20082;-82
2023/12/10 00:53:19;;;;;;;1.47;0.90;;;6.00;99.90;;;;;;4965176;28;20412;-82
2023/12/10 00:55:44;;;;;;;1.23;0.80;;;6.00;99.90;;;;;;4966576;28;20043;-81
2023/12/10 00:58:11;;;;;;;1.40;0.73;;;6.00;99.90;;;;;;4966262;28;20039;-82
2023/12/10 01:00:36;;;;;;;0.77;0.77;;;6.00;99.90;;;;;;4966071;28;20031;-82
2023/12/10 01:03:04;;;;;;;0.87;0.77;;;6.00;99.90;;;;;;4966704;28;20338;-81
2023/12/10 01:05:29;;;;;;;0.70;0.70;;;5.90;99.90;;;;;;4965808;28;20030;-82
2023/12/10 01:07:55;;;;;;;1.57;0.90;;;5.90;99.90;;;;;;4966662;28;20038;-82
2023/12/10 01:10:20;;;;;;;1.13;0.70;;;5.90;99.90;;;;;;4965491;28;20810;-82
2023/12/10 01:12:46;;;;;;;2.60;1.30;;;5.80;99.90;;;;;;4966364;28;20438;-81
2023/12/10 01:15:11;;;;;;;3.53;0.90;;;5.80;99.90;;;;;;4965495;28;20051;-82
2023/12/10 01:17:37;;;;;;;1.03;0.80;;;5.80;99.90;;;;;;4966582;28;20090;-82
2023/12/10 01:20:06;;;;;;;2.63;0.90;;;5.80;99.90;;;;;;4966438;28;20060;-81
2023/12/10 01:22:31;;;;;;;2.13;0.90;;;5.90;99.90;;;;;;4965814;28;20060;-82
2023/12/10 01:24:57;;;;;;;2.13;0.93;;;5.90;99.90;;;;;;4963878;28;20031;-82
2023/12/10 01:27:23;;;;;;;1.10;0.70;;;5.90;99.90;;;;;;4964377;28;20054;-82
2023/12/10 01:29:49;;;;;;;0.70;0.70;;;5.90;99.90;;;;;;4964952;28;20122;-81
2023/12/10 01:32:15;;;;;;;2.37;0.80;;;5.90;99.90;;;;;;4964147;28;20038;-81
2023/12/10 01:34:43;;;;;;;2.57;1.00;;;5.80;99.90;;;;;;4964641;28;20145;-81
2023/12/10 01:37:09;;;;;;;2.60;0.80;;;5.80;99.90;;;;;;4945374;28;20432;-82
2023/12/10 01:39:34;;;;;;;2.17;0.87;;;5.70;99.90;;;;;;4946459;28;20028;-81
2023/12/10 01:42:00;;;;;;;3.33;0.90;;;5.80;99.90;;;;;;4964964;28;20035;-81
2023/12/10 01:44:26;;;;;;;2.27;0.80;;;5.80;99.90;;;;;;4964708;28;20100;-81
2023/12/10 01:46:52;;;;;;;2.27;0.60;;;5.80;99.90;;;;;;4964291;28;20030;-81
2023/12/10 01:49:19;;;;;;;2.43;0.97;;;5.70;99.90;;;;;;4964039;28;20581;-82
2023/12/10 01:51:45;;;;;;;1.20;0.77;;;5.80;99.90;;;;;;4965306;28;20034;-81
2023/12/10 01:54:20;;;;;;;2.03;0.90;;;5.80;99.90;;;;;;4965701;28;20027;-81
2023/12/10 01:56:48;;;;;;;2.45;0.90;;;5.70;99.90;;;;;;4968122;28;20530;-83
2023/12/10 01:59:13;;;;;;;2.97;0.83;;;5.70;99.90;;;;;;4968515;28;20125;-82
2023/12/10 02:01:39;;;;;;;3.43;1.00;;;5.70;99.90;;;;;;4968138;28;20604;-81
2023/12/10 02:04:05;;;;;;;2.70;1.00;;;5.60;99.90;;;;;;4950792;28;20076;-82
2023/12/10 02:06:31;;;;;;;3.53;1.10;;;5.60;99.90;;;;;;4968178;28;20035;-81
2023/12/10 02:08:57;;;;;;;2.17;1.23;;;5.60;99.90;;;;;;4969147;28;20027;-82
2023/12/10 02:11:22;;;;;;;8.37;1.40;;;5.50;99.90;;;;;;4969002;28;21377;-81
2023/12/10 02:13:49;;;;;;;3.70;1.00;;;5.40;99.90;;;;;;4968792;28;20878;-82
2023/12/10 02:16:15;;;;;;;5.27;1.10;;;5.40;99.90;;;;;;4966524;28;20817;-82
2023/12/10 02:18:40;;;;;;;2.40;1.00;;;5.40;99.90;;;;;;4969300;28;20055;-82
2023/12/10 02:21:07;;;;;;;2.40;0.97;;;5.40;99.90;;;;;;4967749;28;20173;-81
2023/12/10 02:23:53;;;;;;;2.23;0.90;;;5.30;99.90;;;;;;4934200;28;1039191;-82
2023/12/10 02:26:19;;;;;;;4.00;1.20;;;5.30;99.90;;;;;;4969006;28;20026;-82
2023/12/10 02:28:44;;;;;;;5.10;0.93;;;5.30;99.90;;;;;;4969375;28;20062;-82
2023/12/10 02:31:10;;;;;;;3.47;0.90;;;5.30;99.90;;;;;;4969359;28;20525;-82
2023/12/10 02:33:36;;;;;;;2.87;0.70;;;5.20;99.90;;;;;;4969426;28;20015;-82
2023/12/10 02:36:02;;;;;;;5.83;0.83;;;5.10;99.90;;;;;;4969327;28;20037;-82
2023/12/10 02:38:27;;;;;;;2.53;0.80;;;5.10;99.90;;;;;;4969294;28;20031;-81
2023/12/10 02:40:53;;;;;;;1.53;0.70;;;5.00;99.90;;;;;;4969922;28;20153;-82
2023/12/10 02:43:19;;;;;;;2.77;0.77;;;5.00;99.90;;;;;;4969415;28;20115;-82
2023/12/10 02:45:45;;;;;;;2.03;0.80;;;4.90;99.90;;;;;;4969600;28;20061;-82
2023/12/10 02:48:11;;;;;;;3.80;0.80;;;4.90;99.90;;;;;;4969543;28;20039;-82
2023/12/10 02:50:36;;;;;;;1.10;0.70;;;4.80;99.90;;;;;;4969734;28;20035;-82
2023/12/10 02:53:02;;;;;;;5.13;1.00;;;4.90;99.90;;;;;;4969140;28;20060;-82
2023/12/10 02:55:27;;;;;;;6.03;1.20;;;4.90;99.90;;;;;;4968497;28;20035;-82
2023/12/10 02:57:53;;;;;;;4.73;0.93;;;4.90;99.90;;;;;;4967944;28;20054;-82
2023/12/10 03:00:19;;;;;;;6.20;1.00;;;4.90;99.90;;;;;;4968943;28;20042;-82
2023/12/10 03:02:45;;;;;;;3.00;0.80;;;5.00;99.90;;;;;;4967371;28;20038;-82
2023/12/10 03:05:10;;;;;;;5.23;1.43;;;5.00;99.90;;;;;;4967715;28;20022;-82
2023/12/10 03:07:36;;;;;;;4.73;0.97;;;5.00;99.90;;;;;;4970128;28;20045;-82
2023/12/10 03:10:01;;;;;;;6.33;1.70;;;5.00;99.90;;;;;;4969705;28;20073;-82
2023/12/10 03:12:27;;;;;;;5.40;1.30;;;4.90;99.90;;;;;;4969544;28;20058;-82
2023/12/10 03:14:52;;;;;;;3.37;1.00;;;4.90;99.90;;;;;;4950989;28;20035;-82
2023/12/10 03:17:18;;;;;;;8.47;1.30;;;5.00;99.90;;;;;;4968781;28;20031;-82
2023/12/10 03:19:44;;;;;;;5.47;1.40;;;5.00;99.90;;;;;;4966821;28;20052;-82
2023/12/10 03:22:09;;;;;;;4.50;1.13;;;5.00;99.90;;;;;;4968551;28;20057;-83
2023/12/10 03:24:35;;;;;;;6.53;1.23;;;5.00;99.90;;;;;;4968363;28;20030;-82
2023/12/10 03:27:00;;;;;;;9.80;2.33;;;5.00;99.90;;;;;;4968101;28;20217;-82
2023/12/10 03:29:26;;;;;;;6.33;1.27;;;5.10;99.90;;;;;;4968197;28;20038;-81
2023/12/10 03:31:52;;;;;;;9.90;1.80;;;5.10;99.90;;;;;;4968625;28;20097;-82
2023/12/10 03:34:17;;;;;;;9.23;1.60;;;5.10;99.90;;;;;;4967934;28;20496;-82
2023/12/10 03:36:43;;;;;;;6.83;1.67;;;5.10;99.90;;;;;;4967192;28;20043;-82
2023/12/10 03:39:08;;;;;;;8.93;1.90;;;5.00;99.90;;;;;;4968106;28;20164;-82
2023/12/10 03:41:34;;;;;;;6.70;2.13;;;5.00;99.90;;;;;;4967054;28;20042;-82
2023/12/10 03:43:59;;;;;;;9.47;3.47;;;5.00;99.90;;;;;;4968037;28;20046;-82
2023/12/10 03:46:25;;;;;;;10.07;1.40;;;5.10;99.90;;;;;;4967548;28;20034;-82
2023/12/10 03:48:51;;;;;;;6.50;1.40;;;5.00;99.90;;;;;;4968024;28;20655;-81
2023/12/10 03:51:17;;;;;;;5.03;1.27;;;5.00;99.90;;;;;;4968214;28;20061;-82
2023/12/10 03:53:42;;;;;;;9.50;1.73;;;5.00;99.90;;;;;;4966807;28;20078;-82
2023/12/10 03:56:09;;;;;;;5.40;1.27;;;4.90;99.90;;;;;;4967222;28;20034;-82
2023/12/10 03:58:35;;;;;;;5.00;1.30;;;4.90;99.90;;;;;;4968018;28;20494;-82
2023/12/10 04:01:01;;;;;;;4.13;1.80;;;4.80;99.90;;;;;;4968416;28;20164;-82
2023/12/10 04:03:26;;;;;;;7.03;1.30;;;4.80;99.90;;;;;;4967027;28;20042;-82
2023/12/10 04:05:52;;;;;;;5.03;1.50;;;4.80;99.90;;;;;;4968236;28;20721;-83
2023/12/10 04:08:17;;;;;;;4.13;1.30;;;4.70;99.90;;;;;;4966259;28;20026;-82
2023/12/10 04:10:43;;;;;;;14.20;2.67;;;4.70;99.90;;;;;;4967660;28;20030;-82
2023/12/10 04:13:08;;;;;;;5.10;1.30;;;4.70;99.90;;;;;;4967688;28;20058;-82
2023/12/10 04:15:34;;;;;;;6.13;1.37;;;4.70;99.90;;;;;;4966296;28;20045;-82
2023/12/10 04:18:00;;;;;;;6.90;1.50;;;4.70;99.90;;;;;;4966874;28;20034;-81
2023/12/10 04:20:26;;;;;;;3.97;1.13;;;4.70;99.90;;;;;;4967162;28;20018;-82
2023/12/10 04:22:51;;;;;;;11.30;1.73;;;4.70;99.90;;;;;;4967869;28;20516;-82
2023/12/10 04:25:16;;;;;;;7.53;1.60;;;4.80;99.90;;;;;;4966075;28;20033;-83
2023/12/10 04:27:42;;;;;;;7.07;1.30;;;4.80;99.90;;;;;;4966525;28;20031;-82
2023/12/10 04:30:08;;;;;;;10.10;1.80;;;4.80;99.90;;;;;;4967461;28;20035;-82
2023/12/10 04:32:34;;;;;;;11.93;2.33;;;4.80;99.90;;;;;;4967521;28;20034;-82
2023/12/10 04:34:59;;;;;;;9.77;1.37;;;4.80;99.90;;;;;;4968196;28;20035;-82
2023/12/10 04:37:25;;;;;;;9.00;1.80;;;4.80;99.90;;;;;;4950749;28;20031;-82
2023/12/10 04:39:50;;;;;;;5.37;1.30;;;4.80;99.90;;;;;;4967331;28;20026;-82
2023/12/10 04:42:16;;;;;;;5.47;1.20;;;4.80;99.90;;;;;;4966695;28;20490;-82
2023/12/10 04:44:42;;;;;;;4.30;1.63;;;4.80;99.90;;;;;;4967611;28;20409;-82
2023/12/10 04:47:07;;;;;;;12.50;1.80;;;4.80;99.90;;;;;;4967173;28;20085;-82
2023/12/10 04:49:33;;;;;;;8.87;1.60;;;4.80;99.90;;;;;;4966633;28;20037;-82
2023/12/10 04:51:58;;;;;;;9.60;2.73;;;4.80;99.90;;;;;;4949439;28;20030;-82
2023/12/10 04:54:24;;;;;;;11.10;1.90;;;4.70;99.90;;;;;;4965757;28;20371;-81
2023/12/10 04:56:49;;;;;;;13.40;2.87;;;4.60;99.90;;;;;;4966629;28;20075;-82
2023/12/10 04:59:15;;;;;;;8.97;2.17;;;4.60;99.90;;;;;;4949479;28;20034;-81
2023/12/10 05:01:41;;;;;;;15.73;2.33;;;4.60;99.90;;;;;;4966396;28;20023;-82
2023/12/10 05:04:06;;;;;;;13.30;2.73;;;4.60;99.90;;;;;;4966503;28;20026;-81
2023/12/10 05:06:32;;;;;;;13.33;2.57;;;4.50;99.90;;;;;;4965975;28;20038;-82
2023/12/10 05:08:58;;;;;;;13.03;2.20;;;4.60;99.90;;;;;;4949001;28;20026;-82
2023/12/10 05:11:23;;;;;;;15.60;2.77;;;4.60;99.90;;;;;;4966828;28;20041;-81
2023/12/10 05:13:49;;;;;;;16.43;2.30;;;4.60;99.90;;;;;;4967351;28;20533;-81
2023/12/10 05:16:14;;;;;;;20.40;2.70;;;4.70;99.90;;;;;;4965639;28;20050;-82
2023/12/10 05:18:40;;;;;;;16.33;3.30;;;4.70;99.90;;;;;;4967942;28;20070;-82
2023/12/10 05:21:06;;;;;;;18.23;3.33;;;4.70;99.90;;;;;;4967245;28;20089;-82
2023/12/10 05:23:31;;;;;;;17.73;2.77;;;4.80;99.90;;;;;;4966616;28;20046;-82
2023/12/10 05:25:57;;;;;;;12.90;2.40;;;4.80;99.90;;;;;;4967125;28;20122;-82
2023/12/10 05:28:22;;;;;;;19.33;3.37;;;4.80;99.90;;;;;;4967741;28;20058;-82
2023/12/10 05:30:48;;;;;;;15.67;3.30;;;4.90;99.90;;;;;;4950325;28;20027;-82
2023/12/10 05:33:13;;;;;;;17.30;2.90;;;4.90;99.90;;;;;;4967218;28;20030;-82
2023/12/10 05:35:39;;;;;;;17.17;2.53;;;4.90;99.90;;;;;;4966393;28;20512;-82
2023/12/10 05:38:07;;;;;;;17.87;3.43;;;4.90;99.90;;;;;;4965321;28;20037;-82
2023/12/10 05:40:33;;;;;;;18.83;2.97;;;5.00;99.90;;;;;;4967390;28;20026;-82
2023/12/10 05:42:58;;;;;;;14.43;3.33;;;5.00;99.90;;;;;;4966039;28;20105;-82
2023/12/10 05:45:24;;;;;;;19.37;2.70;;;5.00;99.90;;;;;;4966506;28;20030;-82
2023/12/10 05:47:49;;;;;;;19.40;3.50;;;5.00;99.90;;;;;;4966577;28;20492;-81
2023/12/10 05:50:15;;;;;;;12.13;3.10;;;5.00;99.90;;;;;;4966640;28;20039;-82
2023/12/10 05:52:40;;;;;;;14.93;2.63;;;5.00;99.90;;;;;;4966157;28;20508;-82
2023/12/10 05:55:06;;;;;;;15.27;2.37;;;5.00;99.90;;;;;;4965766;28;20109;-82
2023/12/10 05:57:32;;;;;;;19.90;2.63;;;5.10;99.90;;;;;;4966575;28;20050;-82
2023/12/10 05:59:57;;;;;;;13.40;2.40;;;5.10;99.90;;;;;;4965545;28;20075;-82
2023/12/10 06:02:23;;;;;;;12.00;2.30;;;5.00;99.90;;;;;;4966207;28;20035;-82
2023/12/10 06:04:48;;;;;;;13.87;2.77;;;5.10;99.90;;;;;;4966581;28;20094;-82
2023/12/10 06:07:14;;;;;;;17.70;3.53;;;5.10;99.90;;;;;;4946798;28;20030;-82
2023/12/10 06:09:39;;;;;;;22.83;5.17;;;5.10;99.90;;;;;;4964443;28;20031;-82
2023/12/10 06:12:05;;;;;;;16.30;3.10;;;5.10;99.90;;;;;;4965275;28;20050;-82
2023/12/10 06:14:31;;;;;;;17.30;3.10;;;5.10;99.90;;;;;;4966298;28;20035;-83
2023/12/10 06:16:56;;;;;;;16.10;2.93;;;5.10;99.90;;;;;;4966222;28;20106;-83
2023/12/10 06:19:22;;;;;;;12.37;3.03;;;5.00;99.90;;;;;;4966609;28;20069;-83
2023/12/10 06:21:47;;;;;;;9.87;1.73;;;5.00;99.90;;;;;;4966296;28;20062;-82
2023/12/10 06:24:13;;;;;;;11.97;2.67;;;5.00;99.90;;;;;;4967272;28;20034;-82
2023/12/10 06:26:38;;;;;;;10.37;2.80;;;5.00;99.90;;;;;;4967781;28;20035;-82
2023/12/10 06:29:04;;;;;;;17.07;3.33;;;5.00;99.90;;;;;;4966915;28;20069;-81
2023/12/10 06:31:29;;;;;;;12.60;2.70;;;5.00;99.90;;;;;;4967722;28;20030;-83
2023/12/10 06:33:55;;;;;;;17.67;3.80;;;5.00;99.90;;;;;;4967634;28;20049;-83
2023/12/10 06:36:20;;;;;;;14.67;3.13;;;5.00;99.90;;;;;;4966959;28;20659;-83
2023/12/10 06:38:46;;;;;;;21.27;3.43;;;5.00;99.90;;;;;;4966597;28;20035;-83
2023/12/10 06:41:11;;;;;;;17.13;2.93;;;4.90;99.90;;;;;;4969494;28;20031;-83
2023/12/10 06:43:37;;;;;;;11.90;2.50;;;4.90;99.90;;;;;;4969669;28;20051;-83
2023/12/10 06:46:03;;;;;;;19.63;3.03;;;4.90;99.90;;;;;;4969341;28;20881;-83
2023/12/10 06:48:28;;;;;;;22.40;3.10;;;4.80;99.90;;;;;;4970499;28;20033;-81
2023/12/10 06:50:54;;;;;;;15.43;2.97;;;4.80;99.90;;;;;;4970496;28;20019;-83
2023/12/10 06:53:19;;;;;;;12.73;2.40;;;4.80;99.90;;;;;;4969314;28;21771;-83
2023/12/10 06:55:45;;;;;;;14.63;2.53;;;4.80;99.90;;;;;;4969060;28;20042;-84
2023/12/10 06:58:11;;;;;;;15.20;2.60;;;4.80;99.90;;;;;;4951866;28;20496;-84
2023/12/10 07:00:36;;;;;;;17.07;2.60;;;4.80;99.90;;;;;;4970172;28;20046;-83
2023/12/10 07:03:02;;;;;;;19.53;3.97;;;4.90;99.90;;;;;;4970076;28;20035;-85
2023/12/10 07:05:27;;;;;;;17.23;2.57;;;4.90;99.90;;;;;;4973102;28;20027;-82
2023/12/10 07:07:53;;;;;;;14.67;3.00;;;4.90;99.90;;;;;;4971937;28;20023;-81
2023/12/10 07:10:18;;;;;;;11.67;2.63;;;4.90;99.90;;;;;;4956009;28;20041;-83
2023/12/10 07:12:44;;;;;;;16.43;3.23;;;4.90;99.90;;;;;;4975194;28;20046;-83
2023/12/10 07:15:10;;;;;;;19.53;3.27;;;4.90;99.90;;;;;;4947911;28;20031;-82
2023/12/10 07:17:37;;;;;;;14.47;2.60;;;4.90;99.90;;;;;;4965343;28;20043;-82
2023/12/10 07:20:03;;;;;;;19.00;2.80;;;4.90;99.90;;;;;;4964819;28;20064;-82
2023/12/10 07:22:28;;;;;;;12.13;2.40;;;4.90;99.90;;;;;;4947506;28;20039;-82
2023/12/10 07:24:54;;;;;;;14.57;3.00;;;4.90;99.90;;;;;;4957816;28;20041;-81
2023/12/10 07:27:19;;;;;;;14.97;2.87;;;4.90;99.90;;;;;;4965249;28;20058;-83
2023/12/10 07:29:45;;;;;;;13.37;2.40;;;5.00;99.90;;;;;;4965034;28;20035;-82
2023/12/10 07:32:11;;;;;;;18.03;3.20;;;5.00;99.90;;;;;;4965736;28;20569;-81
2023/12/10 07:34:36;;;;;;;13.00;2.50;;;5.10;99.90;;;;;;4964776;28;20035;-82
2023/12/10 07:37:02;;;;;;;17.07;3.90;;;5.00;99.90;;;;;;4964756;28;20035;-82
2023/12/10 07:39:28;;;;;;;11.90;2.43;;;5.10;99.90;;;;;;4962432;28;20093;-80
2023/12/10 07:44:02;;;;;;;17.10;3.20;;;5.10;99.90;;;;;;5046490;28;20424;-79
2023/12/10 07:46:28;;;;;;;18.47;3.03;;;5.20;99.90;;;;;;5043412;28;20879;-82
2023/12/10 07:48:53;;;;;;;12.90;2.43;;;5.20;99.90;;;;;;5044772;28;20083;-85
2023/12/10 07:51:19;;;;;;;12.60;2.57;;;5.20;99.90;;;;;;5041591;28;20036;-84
2023/12/10 07:53:45;;;;;;;16.13;2.77;;;5.20;99.90;;;;;;5045111;28;20029;-84
2023/12/10 07:56:10;;;;;;;14.73;2.37;;;5.10;99.90;;;;;;5045530;28;20021;-83
2023/12/10 07:58:36;;;;;;;16.90;3.77;;;5.10;99.90;;;;;;5048696;28;20048;-84
2023/12/10 08:01:04;;;;;;;10.80;3.13;;;5.10;99.90;;;;;;5044900;28;20029;-84
2023/12/10 08:03:30;;;;;;;10.03;2.30;;;5.10;99.90;;;;;;5043553;28;20032;-84
2023/12/10 08:05:56;;;;;;;15.30;2.87;;;5.20;99.90;;;;;;5045183;28;20032;-84
2023/12/10 08:08:22;;;;;;;15.30;2.63;;;5.10;99.90;;;;;;5046179;28;20064;-84
2023/12/10 08:10:50;;;;;;;10.37;2.93;;;5.10;99.90;;;;;;5047394;28;20100;-84
2023/12/10 08:13:15;;;;;;;15.07;2.93;;;5.10;99.90;;;;;;5039896;28;20025;-82
2023/12/10 08:15:41;;;;;;;19.53;3.40;;;5.10;99.90;;;;;;5049473;28;20043;-84
2023/12/10 08:18:07;;;;;;;19.13;3.27;;;5.20;99.90;;;;;;5048882;28;20032;-84
2023/12/10 08:20:33;;;;;;;15.77;3.10;;;5.10;99.90;;;;;;5046280;28;20116;-84
2023/12/10 08:22:59;;;;;;;13.63;2.90;;;5.10;99.90;;;;;;5045681;28;20100;-83
2023/12/10 08:25:25;;;;;;;17.37;3.27;;;5.10;99.90;;;;;;5049484;28;20036;-82
2023/12/10 08:27:50;;;;;;;19.87;3.47;;;5.10;99.90;;;;;;5040919;28;20498;-84
2023/12/10 08:30:16;;;;;;;9.23;2.73;;;5.20;99.90;;;;;;5050002;28;20083;-84
2023/12/10 08:32:42;;;;;;;10.17;2.00;;;5.20;99.90;;;;;;5043094;28;20034;-84
2023/12/10 08:35:08;;;;;;;14.57;3.23;;;5.30;99.90;;;;;;5045907;28;20032;-84
2023/12/10 08:37:33;;;;;;;11.87;2.50;;;5.20;99.90;;;;;;5042813;28;20040;-87
2023/12/10 08:40:05;;;;;;;16.90;2.50;;;5.20;99.90;;;;;;5045654;28;20033;-86
2023/12/10 08:42:30;;;;;;;13.23;2.37;;;5.20;99.90;;;;;;5047069;28;20070;-82
2023/12/10 08:44:57;;;;;;;14.07;2.60;;;5.20;99.90;;;;;;5044969;28;20033;-81
2023/12/10 08:47:23;;;;;;;16.70;2.97;;;5.30;99.90;;;;;;5046986;28;20028;-81
2023/12/10 08:49:48;;;;;;;11.80;2.90;;;5.40;99.90;;;;;;5048726;28;20029;-80
2023/12/10 08:52:14;;;;;;;19.70;3.27;;;5.50;99.90;;;;;;5045942;28;20123;-79
2023/12/10 08:54:39;;;;;;;16.70;2.87;;;5.60;99.90;;;;;;5035324;28;20033;-72
2023/12/10 08:57:05;;;;;;;13.83;3.63;;;5.50;99.90;;;;;;5034134;28;20047;-80
2023/12/10 08:59:30;;;;;;;18.40;3.53;;;5.60;99.90;;;;;;5035355;28;20029;-79
2023/12/10 09:01:56;;;;;;;16.03;2.90;;;5.60;99.90;;;;;;5035713;28;20057;-80
2023/12/10 09:04:21;;;;;;;11.87;2.83;;;5.60;99.90;;;;;;5033953;28;20373;-79
2023/12/10 09:06:47;;;;;;;12.03;2.33;;;5.70;99.90;;;;;;5031924;28;20025;-80
2023/12/10 09:09:12;;;;;;;14.07;2.87;;;5.70;99.90;;;;;;5034190;28;20095;-80
2023/12/10 09:11:38;;;;;;;15.33;2.17;;;5.70;99.90;;;;;;5032827;28;20025;-80
2023/12/10 09:14:03;;;;;;;12.00;2.47;;;5.80;99.90;;;;;;5032886;28;20119;-80
2023/12/10 09:16:29;;;;;;;10.57;3.03;;;5.80;99.90;;;;;;5028881;28;20079;-79
2023/12/10 09:18:55;;;;;;;14.50;2.27;;;5.70;99.90;;;;;;5030635;28;20032;-79
2023/12/10 09:21:21;;;;;;;13.43;2.40;;;5.70;99.90;;;;;;5033300;28;20072;-83
2023/12/10 09:23:46;;;;;;;12.40;2.40;;;5.80;99.90;;;;;;5035870;28;20132;-76
2023/12/10 09:26:12;;;;;;;7.80;2.23;;;5.80;99.90;;;;;;5032392;28;20113;-88
2023/12/10 09:28:37;;;;;;;12.87;2.83;;;5.80;99.90;;;;;;5029801;28;20025;-88
2023/12/10 09:31:03;;;;;;;13.40;3.00;;;5.90;99.90;;;;;;5030117;28;20027;-88
2023/12/10 09:33:30;;;;;;;14.47;3.20;;;5.90;99.90;;;;;;5031375;28;20060;-87
2023/12/10 09:35:55;;;;;;;12.87;2.93;;;5.90;99.90;;;;;;5031105;28;20075;-87
2023/12/10 09:38:21;;;;;;;11.00;2.23;;;5.90;99.90;;;;;;5034564;28;20867;-85
2023/12/10 09:40:46;;;;;;;11.00;2.67;;;6.00;99.90;;;;;;5039793;28;20051;-86
2023/12/10 09:43:12;;;;;;;9.40;2.17;;;6.00;99.90;;;;;;5036738;28;20029;-84
2023/12/10 09:45:38;;;;;;;14.47;2.67;;;6.00;99.90;;;;;;5039270;28;20021;-82
2023/12/10 09:48:04;;;;;;;13.27;2.13;;;6.00;99.90;;;;;;5033070;28;20458;-85
2023/12/10 09:50:35;;;;;;;14.17;3.03;;;6.00;99.90;;;;;;5033772;28;20045;-87
2023/12/10 09:53:02;;;;;;;14.57;2.50;;;6.10;99.90;;;;;;5029545;28;20040;-79
2023/12/10 09:55:28;;;;;;;13.60;2.60;;;6.10;99.90;;;;;;5038141;28;20034;-82
2023/12/10 09:57:53;;;;;;;12.20;2.27;;;6.20;99.90;;;;;;5037840;28;20418;-87
2023/12/10 10:00:19;;;;;;;10.03;2.10;;;6.30;99.90;;;;;;5039435;28;20025;-86
2023/12/10 10:02:45;;;;;;;11.03;2.83;;;6.30;99.90;;;;;;5036787;28;20026;-86
2023/12/10 10:07:45;;;;;;;9.30;2.35;;;6.40;99.90;;;;;;4998038;22;20129;-85
2023/12/10 10:10:11;;;;;;;8.47;1.90;;;6.40;99.90;;;;;;4991974;28;20121;-86
2023/12/10 10:12:37;;;;;;;18.90;3.10;;;6.40;99.90;;;;;;4991078;28;20038;-86
2023/12/10 10:15:03;;;;;;;15.97;2.87;;;6.40;99.90;;;;;;4989290;28;20037;-86
2023/12/10 10:17:35;;;;;;;7.97;2.47;;;6.50;99.90;;;;;;4990217;28;20038;-86
2023/12/10 15:07:30;;;;;;;11.82;2.33;;;6.20;99.90;;;;;;4422426;22;19980;-75
2023/12/10 15:09:56;;;;;;;14.10;2.67;;;6.20;99.90;;;;;;4991797;28;20568;-75
2023/12/10 16:14:43;;;;;;;10.60;2.27;;;5.90;99.90;;;;;;5012618;28;20127;-85
2023/12/10 16:17:17;;;;;;;11.30;2.60;;;5.90;99.90;;;;;;4960592;28;20566;-85
2023/12/10 16:19:48;;;;;;;13.20;2.90;;;5.90;99.90;;;;;;5008046;28;20034;-85
2023/12/10 16:22:46;;;;;;;;;;;;;;;;;;;;;
2023/12/10 16:25:13;;;;;;;11.33;2.57;;;5.80;99.90;;;;;;5003240;28;20036;-84
2023/12/10 16:27:39;;;;;;;10.37;2.23;;;5.80;99.90;;;;;;5002589;28;20080;-82
2023/12/10 16:30:05;;;;;;;11.17;3.10;;;5.70;99.90;;;;;;5001663;28;20042;-84
2023/12/10 16:32:38;;;;;;;10.43;3.17;;;5.70;99.90;;;;;;5000697;28;20025;-83
2023/12/10 16:35:07;;;;;;;13.93;3.70;;;5.70;99.90;;;;;;4998599;28;20026;-83
2023/12/10 16:37:35;;;;;;;11.63;3.13;;;5.70;99.90;;;;;;5001229;28;20087;-83
2023/12/10 16:40:04;;;;;;;9.97;3.50;;;5.70;99.90;;;;;;5002041;28;20034;-83
2023/12/10 16:42:37;;;;;;;12.17;3.27;;;5.70;99.90;;;;;;4985421;28;20113;-84
2023/12/10 16:45:03;;;;;;;10.40;3.03;;;5.70;99.90;;;;;;4997898;28;20097;-84
2023/12/10 16:47:37;;;;;;;11.80;2.53;;;5.70;99.90;;;;;;4999702;28;20029;-84
2023/12/10 16:50:07;;;;;;;9.90;2.90;;;5.80;99.90;;;;;;5001218;28;20042;-84
2023/12/10 16:52:35;;;;;;;10.90;4.00;;;5.70;99.90;;;;;;4999694;28;20030;-84
2023/12/10 17:01:56;;;;;;;8.87;3.70;;;5.70;99.90;;;;;;4983382;28;20634;-85
2023/12/10 17:05:15;;;;;;;;;;;;;;;;;;;;;
2023/12/10 17:07:56;;;;;;;11.50;2.50;;;5.50;99.90;;;;;;4992158;28;20018;-85
2023/12/10 17:10:24;;;;;;;10.40;2.87;;;5.40;99.90;;;;;;4993377;28;20033;-85
2023/12/10 17:12:57;;;;;;;7.43;2.80;;;5.40;99.90;;;;;;4993197;28;20524;-85
2023/12/10 17:15:26;;;;;;;9.90;3.17;;;5.40;99.90;;;;;;4997973;28;20030;-83
2023/12/10 17:17:54;;;;;;;12.07;3.10;;;5.30;99.90;;;;;;5002658;28;20038;-83
2023/12/10 17:20:27;;;;;;;9.23;2.93;;;5.30;99.90;;;;;;5000021;28;20034;-81
2023/12/10 17:22:56;;;;;;;12.03;3.37;;;5.30;99.90;;;;;;4996713;28;20061;-84
2023/12/10 17:25:24;;;;;;;10.53;3.10;;;5.30;99.90;;;;;;4998135;28;20041;-83
2023/12/10 17:27:57;;;;;;;7.43;2.63;;;5.20;99.90;;;;;;4998401;28;20026;-82
2023/12/10 17:30:23;;;;;;;10.00;2.70;;;5.20;99.90;;;;;;4998035;28;20769;-83
2023/12/10 17:32:57;;;;;;;13.97;3.73;;;5.20;99.90;;;;;;4997263;28;20041;-83
2023/12/10 17:35:25;;;;;;;10.73;2.80;;;5.10;99.90;;;;;;4998989;28;20022;-84
2023/12/10 17:37:53;;;;;;;7.67;3.13;;;5.10;99.90;;;;;;4998706;28;20300;-82
2023/12/10 17:40:26;;;;;;;8.13;2.50;;;5.10;99.90;;;;;;5001039;28;20030;-83
2023/12/10 17:42:55;;;;;;;10.67;3.30;;;5.00;99.90;;;;;;4998542;28;20041;-82
2023/12/10 17:45:33;;;;;;;9.00;3.30;;;5.00;99.90;;;;;;4980118;28;20619;-84
2023/12/10 17:48:04;;;;;;;9.97;2.87;;;4.90;99.90;;;;;;4996225;28;20929;-85
2023/12/10 17:50:34;;;;;;;6.23;2.57;;;4.90;99.90;;;;;;4994559;28;20026;-85
2023/12/10 17:53:10;;;;;;;8.83;3.27;;;4.80;99.90;;;;;;4993077;28;21554;-84
2023/12/10 17:55:38;;;;;;;11.37;4.57;;;4.70;99.90;;;;;;4993958;28;20131;-85
2023/12/10 17:58:06;;;;;;;11.37;4.97;;;4.70;99.90;;;;;;4993731;28;20026;-86
2023/12/10 18:00:34;;;;;;;10.83;3.93;;;4.60;99.90;;;;;;4993488;28;20161;-84
2023/12/10 18:03:02;;;;;;;13.87;4.30;;;4.60;99.90;;;;;;4992047;28;20786;-84
2023/12/10 18:05:28;;;;;;;14.87;4.73;;;4.60;99.90;;;;;;4993989;28;22716;-86
2023/12/10 18:07:54;;;;;;;11.87;3.87;;;4.50;99.90;;;;;;4993764;28;20038;-84
2023/12/10 18:10:30;;;;;;;;;;;;;;;;;;;;;
2023/12/10 18:12:56;;;;;;;12.73;4.30;;;4.40;99.90;;;;;;4998268;28;20404;-83
2023/12/10 18:15:24;;;;;;;14.20;6.10;;;4.40;99.90;;;;;;4998536;28;20030;-84
2023/12/10 18:17:50;;;;;;;15.03;5.23;;;4.30;99.90;;;;;;4996182;28;20034;-83
2023/12/10 18:20:16;;;;;;;15.07;5.53;;;4.30;99.90;;;;;;4998317;28;20098;-85
2023/12/10 18:22:44;;;;;;;13.03;5.10;;;4.30;99.90;;;;;;4997708;28;20125;-84
2023/12/10 18:25:10;;;;;;;16.53;5.27;;;4.20;99.90;;;;;;4995698;28;20098;-84
2023/12/10 18:27:36;;;;;;;17.33;6.30;;;4.20;99.90;;;;;;4996813;28;20050;-84
2023/12/10 18:30:05;;;;;;;12.43;4.13;;;4.10;99.90;;;;;;4998370;28;20086;-84
2023/12/10 18:32:38;;;;;;;15.10;4.40;;;4.10;99.90;;;;;;4998304;28;20034;-84
2023/12/10 18:35:04;;;;;;;10.73;4.30;;;4.10;99.90;;;;;;4978839;28;20034;-84
2023/12/10 18:37:30;;;;;;;10.57;3.73;;;4.00;99.90;;;;;;4992927;28;20052;-84
2023/12/10 18:39:55;;;;;;;21.63;9.00;;;4.00;99.90;;;;;;4992835;28;20050;-84
2023/12/10 18:42:22;;;;;;;16.57;7.30;;;4.00;99.90;;;;;;4996526;28;20129;-84
2023/12/10 18:44:48;;;;;;;17.37;7.10;;;4.00;99.90;;;;;;4993814;28;21035;-85
2023/12/10 18:47:14;;;;;;;14.63;6.20;;;3.90;99.90;;;;;;4977103;28;20064;-84
2023/12/10 18:49:44;;;;;;;15.60;8.20;;;3.90;99.90;;;;;;4993307;28;20030;-84
2023/12/10 18:52:10;;;;;;;16.43;6.53;;;3.90;99.90;;;;;;4979574;28;20030;-83
2023/12/10 18:54:36;;;;;;;16.07;7.03;;;3.90;99.90;;;;;;4995865;28;20069;-85